createdAt,value
2019-01-09T00:01:26.928Z,15.40
2019-01-09T00:03:56.997Z,15.40
2019-01-09T00:06:27.060Z,15.40
2019-01-09T00:08:57.149Z,15.50
2019-01-09T00:11:27.100Z,15.50
2019-01-09T00:13:57.062Z,15.50
2019-01-09T00:16:27.091Z,15.50
2019-01-09T00:18:56.973Z,15.50
2019-01-09T00:21:27.030Z,15.50
2019-01-09T00:23:57.092Z,15.50
2019-01-09T00:26:27.056Z,15.50
2019-01-09T00:28:56.916Z,15.50
2019-01-09T00:31:26.972Z,15.50
2019-01-09T00:33:56.906Z,15.50
2019-01-09T00:36:32.667Z,15.50
2019-01-09T00:39:02.606Z,15.50
2019-01-09T00:41:32.725Z,15.40
2019-01-09T00:44:02.751Z,15.40
2019-01-09T00:46:32.717Z,15.40
2019-01-09T00:49:02.712Z,15.40
2019-01-09T00:51:32.808Z,15.30
2019-01-09T00:54:03.000Z,15.30
2019-01-09T00:56:33.057Z,15.30
2019-01-09T00:59:03.021Z,15.30
2019-01-09T01:01:33.165Z,15.30
2019-01-09T01:04:35.516Z,15.30
2019-01-09T01:07:44.607Z,15.30
2019-01-09T01:11:03.030Z,15.20
2019-01-09T01:14:31.917Z,15.10
2019-01-09T01:17:42.877Z,15.10
2019-01-09T01:20:43.389Z,15.00
2019-01-09T01:24:02.289Z,15.00
2019-01-09T01:27:00.077Z,15.10
2019-01-09T01:30:38.068Z,15.10
2019-01-09T01:33:36.804Z,15.10
2019-01-09T01:36:37.808Z,15.10
2019-01-09T01:39:52.572Z,15.10
2019-01-09T01:42:58.033Z,15.10
2019-01-09T01:46:06.314Z,15.10
2019-01-09T01:49:21.804Z,15.10
2019-01-09T01:52:25.208Z,15.10
2019-01-09T01:55:48.114Z,15.10
2019-01-09T01:58:54.518Z,15.20
2019-01-09T02:02:10.764Z,15.10
2019-01-09T02:05:30.808Z,15.20
2019-01-09T02:08:08.861Z,15.20
2019-01-09T02:11:17.632Z,15.10
2019-01-09T02:14:00.676Z,15.10
2019-01-09T02:17:10.344Z,15.10
2019-01-09T02:19:46.441Z,15.10
2019-01-09T02:23:00.481Z,15.10
2019-01-09T02:26:05.036Z,15.10
2019-01-09T02:29:04.176Z,15.00
2019-01-09T02:32:17.515Z,15.00
2019-01-09T02:34:47.469Z,15.00
2019-01-09T02:37:17.300Z,15.00
2019-01-09T02:39:47.188Z,15.00
2019-01-09T02:42:17.152Z,15.10
2019-01-09T02:44:47.301Z,15.10
2019-01-09T02:47:17.182Z,15.10
2019-01-09T02:49:47.256Z,15.20
2019-01-09T02:52:17.283Z,15.20
2019-01-09T02:54:47.179Z,15.20
2019-01-09T02:57:17.095Z,15.30
2019-01-09T02:59:47.077Z,15.30
2019-01-09T03:02:16.934Z,15.30
2019-01-09T03:04:46.987Z,15.30
2019-01-09T03:07:16.873Z,15.30
2019-01-09T03:09:46.796Z,15.30
2019-01-09T03:12:16.801Z,15.40
2019-01-09T03:14:46.749Z,15.40
2019-01-09T03:17:16.720Z,15.40
2019-01-09T03:19:46.740Z,15.40
2019-01-09T03:22:16.682Z,15.40
2019-01-09T03:24:46.758Z,15.40
2019-01-09T03:27:16.680Z,15.40
2019-01-09T03:29:46.767Z,15.30
2019-01-09T03:32:16.661Z,15.30
2019-01-09T03:34:46.756Z,15.30
2019-01-09T03:37:16.804Z,15.30
2019-01-09T03:39:46.756Z,15.30
2019-01-09T03:42:16.860Z,15.20
2019-01-09T03:44:46.765Z,15.20
2019-01-09T03:47:16.665Z,15.20
2019-01-09T03:49:46.779Z,15.10
2019-01-09T03:52:16.647Z,15.10
2019-01-09T03:54:46.484Z,15.10
2019-01-09T03:57:16.485Z,15.20
2019-01-09T03:59:46.347Z,15.20
2019-01-09T04:02:16.262Z,15.20
2019-01-09T04:04:46.225Z,15.20
2019-01-09T04:07:16.080Z,15.20
2019-01-09T04:09:45.933Z,15.20
2019-01-09T04:12:15.887Z,15.20
2019-01-09T04:14:45.872Z,15.20
2019-01-09T04:17:15.769Z,15.20
2019-01-09T04:19:45.736Z,15.20
2019-01-09T04:22:15.633Z,15.20
2019-01-09T04:24:45.520Z,15.20
2019-01-09T04:27:15.522Z,15.20
2019-01-09T04:29:45.387Z,15.20
2019-01-09T04:32:15.240Z,15.20
2019-01-09T04:34:45.247Z,15.20
2019-01-09T04:37:15.241Z,15.20
2019-01-09T04:39:45.085Z,15.20
2019-01-09T04:42:15.073Z,15.20
2019-01-09T04:44:45.097Z,15.20
2019-01-09T04:47:14.964Z,15.20
2019-01-09T04:49:45.013Z,15.20
2019-01-09T04:52:14.969Z,15.20
2019-01-09T04:54:44.865Z,15.20
2019-01-09T04:57:14.776Z,15.10
2019-01-09T04:59:44.644Z,15.10
2019-01-09T05:02:14.505Z,15.10
2019-01-09T05:04:44.548Z,15.00
2019-01-09T05:07:14.589Z,15.00
2019-01-09T05:09:44.433Z,15.00
2019-01-09T05:12:14.392Z,15.00
2019-01-09T05:14:44.212Z,15.00
2019-01-09T05:17:14.114Z,15.00
2019-01-09T05:19:44.066Z,15.00
2019-01-09T05:22:13.956Z,15.00
2019-01-09T05:24:45.583Z,15.00
2019-01-09T05:27:15.441Z,15.00
2019-01-09T05:29:45.280Z,15.00
2019-01-09T05:32:15.163Z,15.00
2019-01-09T05:34:45.129Z,15.00
2019-01-09T05:37:14.994Z,15.00
2019-01-09T05:39:44.841Z,15.00
2019-01-09T05:42:14.800Z,15.00
2019-01-09T05:44:44.708Z,15.00
2019-01-09T05:47:14.558Z,15.00
2019-01-09T05:49:44.568Z,15.00
2019-01-09T05:52:14.508Z,15.00
2019-01-09T05:54:44.396Z,15.10
2019-01-09T05:57:14.343Z,15.10
2019-01-09T05:59:44.212Z,15.10
2019-01-09T06:02:14.211Z,15.10
2019-01-09T06:04:44.173Z,15.10
2019-01-09T06:07:18.642Z,15.10
2019-01-09T06:09:45.624Z,15.00
2019-01-09T06:12:15.570Z,15.00
2019-01-09T06:14:45.400Z,14.90
2019-01-09T06:17:15.266Z,14.90
2019-01-09T06:19:45.349Z,14.90
2019-01-09T06:22:15.245Z,14.80
2019-01-09T06:24:45.100Z,14.80
2019-01-09T06:27:15.077Z,14.80
2019-01-09T06:29:44.937Z,14.80
2019-01-09T06:32:14.779Z,14.80
2019-01-09T06:34:44.708Z,14.80
2019-01-09T06:37:14.621Z,14.80
2019-01-09T06:39:44.613Z,14.90
2019-01-09T06:42:14.688Z,14.90
2019-01-09T06:44:44.616Z,14.90
2019-01-09T06:47:14.512Z,14.90
2019-01-09T06:49:44.455Z,14.90
2019-01-09T06:52:14.422Z,14.90
2019-01-09T06:54:44.316Z,14.90
2019-01-09T06:57:14.278Z,14.90
2019-01-09T06:59:44.144Z,14.90
2019-01-09T07:02:15.060Z,15.00
2019-01-09T07:04:44.995Z,14.90
2019-01-09T07:07:14.867Z,14.90
2019-01-09T07:09:44.754Z,14.90
2019-01-09T07:12:14.725Z,14.90
2019-01-09T07:14:44.593Z,14.90
2019-01-09T07:17:14.484Z,14.90
2019-01-09T07:19:44.456Z,14.90
2019-01-09T07:22:14.286Z,14.90
2019-01-09T07:24:44.165Z,14.90
2019-01-09T07:27:14.165Z,14.90
2019-01-09T07:29:44.014Z,14.90
2019-01-09T07:32:13.968Z,14.90
2019-01-09T07:34:43.886Z,14.80
2019-01-09T07:37:13.769Z,14.80
2019-01-09T07:39:43.653Z,14.80
2019-01-09T07:42:13.684Z,14.70
2019-01-09T07:44:43.611Z,14.70
2019-01-09T07:47:13.575Z,14.70
2019-01-09T07:49:43.557Z,14.70
2019-01-09T07:52:13.579Z,14.70
2019-01-09T07:54:43.469Z,14.70
2019-01-09T07:57:13.432Z,14.70
2019-01-09T07:59:43.376Z,14.70
2019-01-09T08:02:13.300Z,14.70
2019-01-09T08:04:43.257Z,14.70
2019-01-09T08:07:13.180Z,14.80
2019-01-09T08:09:43.039Z,14.80
2019-01-09T08:12:12.961Z,14.80
2019-01-09T08:14:42.905Z,14.80
2019-01-09T08:17:12.871Z,14.80
2019-01-09T08:19:42.812Z,14.80
2019-01-09T08:22:12.842Z,14.80
2019-01-09T08:24:42.680Z,14.80
2019-01-09T08:27:12.699Z,14.70
2019-01-09T08:29:42.664Z,14.70
2019-01-09T08:32:12.644Z,14.70
2019-01-09T08:34:42.692Z,14.70
2019-01-09T08:37:12.571Z,14.70
2019-01-09T08:39:42.519Z,14.70
2019-01-09T08:42:13.133Z,14.70
2019-01-09T08:44:43.226Z,14.60
2019-01-09T08:47:13.182Z,14.70
2019-01-09T08:49:43.160Z,14.70
2019-01-09T08:52:12.987Z,14.70
2019-01-09T08:54:42.924Z,14.70
2019-01-09T08:57:12.882Z,14.70
2019-01-09T08:59:42.792Z,14.70
2019-01-09T09:02:12.685Z,14.70
2019-01-09T09:04:42.680Z,14.70
2019-01-09T09:07:12.803Z,14.70
2019-01-09T09:09:42.837Z,14.70
2019-01-09T09:12:12.960Z,14.70
2019-01-09T09:14:42.949Z,14.70
2019-01-09T09:17:12.800Z,14.70
2019-01-09T09:19:42.872Z,14.70
2019-01-09T09:22:12.739Z,14.70
2019-01-09T09:24:42.593Z,14.70
2019-01-09T09:27:12.569Z,14.70
2019-01-09T09:29:42.417Z,14.80
2019-01-09T09:32:12.424Z,14.80
2019-01-09T09:34:42.356Z,14.80
2019-01-09T09:37:12.386Z,14.80
2019-01-09T09:39:42.278Z,14.80
2019-01-09T09:42:12.204Z,14.80
2019-01-09T09:44:42.135Z,14.80
2019-01-09T09:47:12.048Z,14.70
2019-01-09T09:49:42.092Z,14.70
2019-01-09T09:52:12.075Z,14.70
2019-01-09T09:54:41.923Z,14.70
2019-01-09T09:57:12.891Z,14.60
2019-01-09T09:59:43.692Z,14.60
2019-01-09T10:02:13.604Z,14.60
2019-01-09T10:04:43.573Z,14.60
2019-01-09T10:07:13.525Z,14.60
2019-01-09T10:09:43.418Z,14.70
2019-01-09T10:12:13.448Z,14.70
2019-01-09T10:14:43.312Z,14.70
2019-01-09T10:17:13.183Z,14.70
2019-01-09T10:19:43.100Z,14.70
2019-01-09T10:22:13.093Z,14.70
2019-01-09T10:24:42.948Z,14.70
2019-01-09T10:27:12.896Z,14.70
2019-01-09T10:29:42.940Z,14.80
2019-01-09T10:32:12.817Z,14.80
2019-01-09T10:34:42.764Z,14.80
2019-01-09T10:37:12.808Z,14.80
2019-01-09T10:39:42.687Z,14.80
2019-01-09T10:42:12.659Z,14.90
2019-01-09T10:44:42.496Z,14.90
2019-01-09T10:47:12.464Z,14.90
2019-01-09T10:49:42.489Z,14.90
2019-01-09T10:52:12.470Z,14.90
2019-01-09T10:54:42.396Z,14.90
2019-01-09T10:57:12.586Z,14.90
2019-01-09T10:59:42.466Z,14.90
2019-01-09T11:02:12.432Z,14.90
2019-01-09T11:04:42.352Z,14.90
2019-01-09T11:07:12.220Z,14.90
2019-01-09T11:09:42.110Z,14.90
2019-01-09T11:12:12.124Z,14.90
2019-01-09T11:14:42.085Z,14.90
2019-01-09T11:17:11.904Z,14.90
2019-01-09T11:19:41.861Z,14.90
2019-01-09T11:22:11.837Z,14.90
2019-01-09T11:24:41.831Z,14.90
2019-01-09T11:27:11.804Z,14.90
2019-01-09T11:29:41.771Z,15.00
2019-01-09T11:32:11.627Z,15.00
2019-01-09T11:34:41.659Z,15.00
2019-01-09T11:37:11.559Z,15.00
2019-01-09T11:39:41.435Z,15.00
2019-01-09T11:42:11.540Z,15.00
2019-01-09T11:44:41.420Z,15.00
2019-01-09T11:47:11.405Z,15.00
2019-01-09T11:49:41.382Z,15.00
2019-01-09T11:52:11.208Z,15.00
2019-01-09T11:54:41.701Z,15.10
2019-01-09T11:57:11.841Z,15.10
2019-01-09T11:59:41.772Z,15.10
2019-01-09T12:02:11.873Z,15.10
2019-01-09T12:04:41.944Z,15.10
2019-01-09T12:07:11.935Z,15.10
2019-01-09T12:09:41.825Z,15.10
2019-01-09T12:12:11.728Z,15.10
2019-01-09T12:14:41.604Z,15.10
2019-01-09T12:17:11.627Z,15.10
2019-01-09T12:19:41.581Z,15.10
2019-01-09T12:22:11.588Z,15.10
2019-01-09T12:24:41.444Z,15.10
2019-01-09T12:27:11.414Z,15.10
2019-01-09T12:29:41.358Z,15.10
2019-01-09T12:32:11.345Z,15.20
2019-01-09T12:34:41.331Z,15.20
2019-01-09T12:37:11.290Z,15.20
2019-01-09T12:39:41.170Z,15.20
2019-01-09T12:42:11.118Z,15.10
2019-01-09T12:44:40.992Z,15.10
2019-01-09T12:47:12.006Z,15.20
2019-01-09T12:49:41.923Z,15.20
2019-01-09T12:52:11.805Z,15.20
2019-01-09T12:54:41.863Z,15.20
2019-01-09T12:57:11.900Z,15.20
2019-01-09T12:59:41.748Z,15.20
2019-01-09T13:02:11.759Z,15.20
2019-01-09T13:04:41.625Z,15.20
2019-01-09T13:07:11.601Z,15.20
2019-01-09T13:09:41.677Z,15.20
2019-01-09T13:12:11.655Z,15.20
2019-01-09T13:14:41.537Z,15.30
2019-01-09T13:17:12.056Z,15.30
2019-01-09T13:19:42.104Z,15.30
2019-01-09T13:22:11.992Z,15.30
2019-01-09T13:24:41.976Z,15.30
2019-01-09T13:27:11.819Z,15.30
2019-01-09T13:29:41.693Z,15.30
2019-01-09T13:32:11.596Z,15.30
2019-01-09T13:34:41.520Z,15.30
2019-01-09T13:37:11.547Z,15.40
2019-01-09T13:39:41.481Z,15.40
2019-01-09T13:42:11.409Z,15.40
2019-01-09T13:44:41.300Z,15.40
2019-01-09T13:47:11.437Z,15.40
2019-01-09T13:49:41.447Z,15.40
2019-01-09T13:52:11.356Z,15.40
2019-01-09T13:54:41.276Z,15.40
2019-01-09T13:57:11.137Z,15.40
2019-01-09T13:59:40.964Z,15.50
2019-01-09T14:02:11.028Z,15.50
2019-01-09T14:04:40.933Z,15.50
2019-01-09T14:07:10.815Z,15.50
2019-01-09T14:09:40.760Z,15.50
2019-01-09T14:12:10.637Z,15.50
2019-01-09T14:14:40.529Z,15.50
2019-01-09T14:17:10.431Z,15.50
2019-01-09T14:19:40.312Z,15.50
2019-01-09T14:22:10.292Z,15.50
2019-01-09T14:24:40.252Z,15.50
2019-01-09T14:27:10.224Z,15.50
2019-01-09T14:29:40.061Z,15.50
2019-01-09T14:32:10.172Z,15.50
2019-01-09T14:34:40.029Z,15.40
2019-01-09T14:37:09.908Z,15.40
2019-01-09T14:39:47.808Z,15.40
2019-01-09T14:42:11.362Z,15.50
2019-01-09T14:44:41.224Z,15.50
2019-01-09T14:47:11.184Z,15.50
2019-01-09T14:49:41.081Z,15.50
2019-01-09T14:52:10.931Z,15.50
2019-01-09T14:54:40.844Z,15.50
2019-01-09T14:57:10.817Z,15.50
2019-01-09T14:59:40.692Z,15.50
2019-01-09T15:02:10.839Z,15.50
2019-01-09T15:04:40.784Z,15.50
2019-01-09T15:07:10.611Z,15.50
2019-01-09T15:09:40.666Z,15.50
2019-01-09T15:12:10.808Z,15.50
2019-01-09T15:14:40.739Z,15.50
2019-01-09T15:17:10.837Z,15.60
2019-01-09T15:19:40.801Z,15.50
2019-01-09T15:22:10.815Z,15.60
2019-01-09T15:24:40.773Z,15.60
2019-01-09T15:27:10.780Z,15.60
2019-01-09T15:29:40.653Z,15.60
2019-01-09T15:32:10.585Z,15.60
2019-01-09T15:34:40.407Z,15.60
2019-01-09T15:37:10.383Z,15.60
2019-01-09T15:39:40.454Z,15.60
2019-01-09T15:42:10.320Z,15.50
2019-01-09T15:44:40.188Z,15.50
2019-01-09T15:47:10.236Z,15.50
2019-01-09T15:49:40.173Z,15.50
2019-01-09T15:52:10.036Z,15.50
2019-01-09T15:54:40.140Z,15.50
2019-01-09T15:57:10.001Z,15.50
2019-01-09T15:59:39.853Z,15.50
2019-01-09T16:02:10.026Z,15.50
2019-01-09T16:04:39.980Z,15.50
2019-01-09T16:07:09.923Z,15.50
2019-01-09T16:09:39.873Z,15.50
2019-01-09T16:12:09.747Z,15.60
2019-01-09T16:14:39.704Z,15.60
2019-01-09T16:17:09.748Z,15.60
2019-01-09T16:19:39.697Z,15.60
2019-01-09T16:22:09.583Z,15.60
2019-01-09T16:24:39.612Z,15.60
2019-01-09T16:27:09.616Z,15.50
2019-01-09T16:29:39.468Z,15.60
2019-01-09T16:32:09.676Z,15.60
2019-01-09T16:34:39.560Z,15.60
2019-01-09T16:37:09.442Z,15.60
2019-01-09T16:39:57.069Z,15.60
2019-01-09T16:42:26.920Z,15.60
2019-01-09T16:44:56.760Z,15.60
2019-01-09T16:47:26.692Z,15.60
2019-01-09T16:49:56.584Z,15.60
2019-01-09T16:52:26.601Z,15.60
2019-01-09T16:54:56.497Z,15.70
2019-01-09T16:57:26.364Z,15.70
2019-01-09T16:59:56.726Z,15.70
2019-01-09T17:02:26.856Z,15.80
2019-01-09T17:04:56.730Z,15.80
2019-01-09T17:07:26.806Z,15.80
2019-01-09T17:09:56.707Z,15.80
2019-01-09T17:12:26.971Z,15.80
2019-01-09T17:14:56.888Z,15.80
2019-01-09T17:17:26.799Z,15.80
2019-01-09T17:19:56.720Z,15.80
2019-01-09T17:22:27.093Z,15.70
2019-01-09T17:24:57.028Z,15.70
2019-01-09T17:27:26.901Z,15.70
2019-01-09T17:29:56.720Z,15.70
2019-01-09T17:32:26.780Z,15.70
2019-01-09T17:34:57.119Z,15.70
2019-01-09T17:37:27.076Z,15.80
2019-01-09T17:39:57.052Z,15.70
2019-01-09T17:42:26.872Z,15.70
2019-01-09T17:44:56.724Z,15.70
2019-01-09T17:47:26.743Z,15.70
2019-01-09T17:49:56.612Z,15.60
2019-01-09T17:52:26.474Z,15.60
2019-01-09T17:54:56.485Z,15.60
2019-01-09T17:57:26.680Z,15.60
2019-01-09T17:59:56.573Z,15.60
2019-01-09T18:02:26.627Z,15.60
2019-01-09T18:04:56.451Z,15.60
2019-01-09T18:07:26.312Z,15.60
2019-01-09T18:09:56.236Z,15.60
2019-01-09T18:12:26.088Z,15.60
2019-01-09T18:14:55.944Z,15.60
2019-01-09T18:17:25.940Z,15.60
2019-01-09T18:19:56.096Z,15.60
2019-01-09T18:22:25.951Z,15.60
2019-01-09T18:24:55.884Z,15.70
2019-01-09T18:27:25.768Z,15.70
2019-01-09T18:29:55.644Z,15.70
2019-01-09T18:32:40.326Z,15.70
2019-01-09T18:35:29.480Z,15.70
2019-01-09T18:38:25.908Z,15.70
2019-01-09T18:41:23.063Z,15.60
2019-01-09T18:44:17.965Z,15.60
2019-01-09T18:47:12.995Z,15.50
2019-01-09T18:50:21.648Z,15.50
2019-01-09T18:53:41.402Z,15.50
2019-01-09T18:56:13.523Z,15.40
2019-01-09T18:58:43.548Z,15.40
2019-01-09T19:01:13.539Z,15.40
2019-01-09T19:03:44.140Z,15.50
2019-01-09T19:06:14.176Z,15.50
2019-01-09T19:08:44.160Z,15.50
2019-01-09T19:11:14.202Z,15.60
2019-01-09T19:13:44.016Z,15.60
2019-01-09T19:16:13.885Z,15.60
2019-01-09T19:18:43.843Z,15.60
2019-01-09T19:21:13.797Z,15.50
2019-01-09T19:23:43.687Z,15.50
2019-01-09T19:26:14.205Z,15.50
2019-01-09T19:28:44.052Z,15.50
2019-01-09T19:31:13.967Z,15.50
2019-01-09T19:33:44.041Z,15.50
2019-01-09T19:36:13.999Z,15.50
2019-01-09T19:38:43.895Z,15.50
2019-01-09T19:41:17.376Z,15.50
2019-01-09T19:43:45.625Z,15.50
2019-01-09T19:46:15.482Z,15.50
2019-01-09T19:48:45.592Z,15.50
2019-01-09T19:51:17.662Z,15.40
2019-01-09T19:53:47.781Z,15.40
2019-01-09T19:56:17.760Z,15.40
2019-01-09T19:58:47.572Z,15.40
2019-01-09T20:01:17.640Z,15.40
2019-01-09T20:03:47.688Z,15.40
2019-01-09T20:06:17.520Z,15.50
2019-01-09T20:08:47.631Z,15.50
2019-01-09T20:11:25.961Z,15.50
2019-01-09T20:13:49.458Z,15.50
2019-01-09T20:16:19.610Z,15.50
2019-01-09T20:18:50.029Z,15.50
2019-01-09T20:21:20.332Z,15.50
2019-01-09T20:23:50.281Z,15.50
2019-01-09T20:26:20.329Z,15.50
2019-01-09T20:28:50.216Z,15.50
2019-01-09T20:31:20.302Z,15.50
2019-01-09T20:33:50.408Z,15.50
2019-01-09T20:36:20.555Z,15.50
2019-01-09T20:38:50.600Z,15.50
2019-01-09T20:41:20.634Z,15.50
2019-01-09T20:43:50.844Z,15.50
2019-01-09T20:46:21.122Z,15.50
2019-01-09T20:48:51.619Z,15.60
2019-01-09T20:51:21.947Z,15.60
2019-01-09T20:53:51.996Z,15.60
2019-01-09T20:56:21.965Z,15.60
2019-01-09T20:58:52.012Z,15.60
2019-01-09T21:01:22.161Z,15.60
2019-01-09T21:03:53.368Z,15.60
2019-01-09T21:06:23.589Z,15.60
2019-01-09T21:08:59.477Z,15.60
2019-01-09T21:11:26.455Z,15.60
2019-01-09T21:13:56.379Z,15.60
2019-01-09T21:16:26.417Z,15.60
2019-01-09T21:18:56.905Z,15.60
2019-01-09T21:21:26.807Z,15.60
2019-01-09T21:23:56.668Z,15.60
2019-01-09T21:26:26.675Z,15.60
2019-01-09T21:28:56.666Z,15.60
2019-01-09T21:31:26.696Z,15.70
2019-01-09T21:33:56.646Z,15.70
2019-01-09T21:36:26.726Z,15.70
2019-01-09T21:38:56.583Z,15.70
2019-01-09T21:41:27.672Z,15.70
2019-01-09T21:43:57.656Z,15.70
2019-01-09T21:46:27.812Z,15.60
2019-01-09T21:48:57.852Z,15.60
2019-01-09T21:51:27.863Z,15.60
2019-01-09T21:53:57.745Z,15.60
2019-01-09T21:56:27.843Z,15.60
2019-01-09T21:58:57.689Z,15.60
2019-01-09T22:01:27.744Z,15.60
2019-01-09T22:03:57.668Z,15.60
2019-01-09T22:06:27.496Z,15.60
2019-01-09T22:08:57.572Z,15.70
2019-01-09T22:11:27.486Z,15.70
2019-01-09T22:13:57.492Z,15.70
2019-01-09T22:16:27.544Z,15.70
2019-01-09T22:18:57.545Z,15.70
2019-01-09T22:21:27.687Z,15.70
2019-01-09T22:23:57.536Z,15.70
2019-01-09T22:26:27.574Z,15.70
2019-01-09T22:28:57.387Z,15.70
2019-01-09T22:31:27.244Z,15.70
2019-01-09T22:33:57.205Z,15.70
2019-01-09T22:36:27.056Z,15.60
2019-01-09T22:38:57.027Z,15.60
2019-01-09T22:41:27.114Z,15.60
2019-01-09T22:43:56.988Z,15.70
2019-01-09T22:46:26.935Z,15.70
2019-01-09T22:48:58.576Z,15.70
2019-01-09T22:51:28.392Z,15.70
2019-01-09T22:53:58.267Z,15.70
2019-01-09T22:56:28.218Z,15.70
2019-01-09T22:58:58.079Z,15.70
2019-01-09T23:01:30.032Z,15.70
2019-01-09T23:03:59.956Z,15.70
2019-01-09T23:06:29.949Z,15.70
2019-01-09T23:08:59.768Z,15.70
2019-01-09T23:11:29.799Z,15.70
2019-01-09T23:13:59.626Z,15.70
2019-01-09T23:16:29.668Z,15.70
2019-01-09T23:18:59.818Z,15.70
2019-01-09T23:21:29.656Z,15.70
2019-01-09T23:23:59.520Z,15.70
2019-01-09T23:26:29.556Z,15.70
2019-01-09T23:28:59.394Z,15.70
2019-01-09T23:31:29.452Z,15.70
2019-01-09T23:33:59.555Z,15.70
2019-01-09T23:36:29.497Z,15.70
2019-01-09T23:38:59.452Z,15.70
2019-01-09T23:41:29.493Z,15.70
2019-01-09T23:43:59.649Z,15.70
2019-01-09T23:46:29.499Z,15.70
2019-01-09T23:48:59.442Z,15.70
2019-01-09T23:51:29.397Z,15.70
2019-01-09T23:53:59.323Z,15.70
2019-01-09T23:56:29.220Z,15.70
2019-01-09T23:58:59.165Z,15.70
